首页
METAR-TAF:

METAR-TAF

机场 :

Lytton, 不列颠哥伦比亚, 加拿大

纬度: 50-14N, 经度: 121-35W, 海拔: 229米

当前天气观测

该预报发布于1小时和7分钟前的17:00 UTC
风速10节,风向,有时为16节阵风
温度 20°C
湿度 49%
气压 1019 hPa
能見度: 14.5公里
天空无云

METAR: CWLY 081700Z AUTO 18010G16KT 9SM CLR 20/09 A3008 RMK SLP186 DENSITY ALT 1200FT

时间: 11:07 (18:07 UTC)


TAF: 丢失

超过4000个机场的气象观测和天气预报(METAR&TAF报告)。

可查询的气象台以黄色和红色小点在地图上表示。

将鼠标移到小点上方,可查看气象台名称。

然后点击查看天气观测和预报。

如需切换地图:点击带黑十字的绿色按钮放大地图;点击带横线的绿色按钮缩小地图;或者点击绿色箭头查看邻近地区的地图。


METAR-TAF: